Terminal Aerodrome Forecast
Issued by NWS

Home | Current Version | Previous Version | Text Only | Print | Product List | Glossary On
Versions: 1 2 3 4 5 6 7 8 9 10 11 12 13 14 15 16 17 18 19 20 21
000
FTUS45 KTFX 171700
TAFLWT
TAF
KLWT 171740Z 1718/1818 12004KT 5SM -SN OVC035
      TEMPO 1718/1720 2SM -SN BR OVC020
     FM172000 VRB05KT P6SM BKN050
     FM172200 VRB04KT P6SM BKN250
     FM180200 22006KT P6SM BKN250
     FM181500 22006KT P6SM BKN120=

USA.gov is the U.S. government's official web portal to all federal, state and local government web resources and services.